createdAt,value
2022-08-27T00:02:08.440Z,70.02
2022-08-27T00:04:38.223Z,69.94
2022-08-27T00:07:06.745Z,70.34
2022-08-27T00:09:35.546Z,70.71
2022-08-27T00:12:04.736Z,70.94
2022-08-27T00:14:35.661Z,70.98
2022-08-27T00:17:05.632Z,71.32
2022-08-27T00:19:33.959Z,71.18
2022-08-27T00:22:02.256Z,71.58
2022-08-27T00:24:30.463Z,71.31
2022-08-27T00:26:58.968Z,70.92
2022-08-27T00:29:27.532Z,70.75
2022-08-27T00:31:59.936Z,70.43
2022-08-27T00:34:28.604Z,70.09
2022-08-27T00:36:56.712Z,70.10
2022-08-27T00:39:24.990Z,70.12
2022-08-27T00:41:53.257Z,70.62
2022-08-27T00:44:21.440Z,70.64
2022-08-27T00:46:53.931Z,71.21
2022-08-27T00:49:41.480Z,70.79
2022-08-27T00:52:18.506Z,70.15
2022-08-27T00:54:47.334Z,70.84
2022-08-27T00:57:16.787Z,70.94
2022-08-27T00:59:46.125Z,70.25
2022-08-27T01:02:20.328Z,70.72
2022-08-27T01:04:53.796Z,70.83
2022-08-27T01:07:22.764Z,71.03
2022-08-27T01:09:53.088Z,71.02
2022-08-27T01:12:21.902Z,70.45
2022-08-27T01:14:50.099Z,69.95
2022-08-27T01:17:18.927Z,69.92
2022-08-27T01:19:53.510Z,70.13
2022-08-27T01:22:32.521Z,70.15
2022-08-27T01:25:07.230Z,70.49
2022-08-27T01:27:35.465Z,70.48
2022-08-27T01:30:03.935Z,70.45
2022-08-27T01:32:35.528Z,71.21
2022-08-27T01:35:09.238Z,71.26
2022-08-27T01:37:38.909Z,72.00
2022-08-27T01:40:10.621Z,72.58
2022-08-27T01:42:43.556Z,73.03
2022-08-27T01:45:14.778Z,73.14
2022-08-27T01:47:43.845Z,73.52
2022-08-27T01:50:14.825Z,74.02
2022-08-27T01:52:43.658Z,74.28
2022-08-27T01:55:16.579Z,74.70
2022-08-27T01:57:44.903Z,75.19
2022-08-27T02:00:16.538Z,75.04
2022-08-27T02:02:45.749Z,75.66
2022-08-27T02:05:15.268Z,75.96
2022-08-27T02:07:43.889Z,75.77
2022-08-27T02:10:17.576Z,76.08
2022-08-27T02:12:45.673Z,75.98
2022-08-27T02:15:15.442Z,76.24
2022-08-27T02:17:44.092Z,75.57
2022-08-27T02:20:14.107Z,75.42
2022-08-27T02:22:42.976Z,75.30
2022-08-27T02:25:15.557Z,75.59
2022-08-27T02:27:44.356Z,75.37
2022-08-27T02:30:15.649Z,75.65
2022-08-27T02:32:47.295Z,75.86
2022-08-27T02:35:16.282Z,75.95
2022-08-27T02:37:45.624Z,76.48
2022-08-27T02:40:17.554Z,76.53
2022-08-27T02:42:46.168Z,76.84
2022-08-27T02:45:16.124Z,76.31
2022-08-27T02:47:44.654Z,76.21
2022-08-27T02:50:14.264Z,76.38
2022-08-27T02:52:46.450Z,77.04
2022-08-27T02:55:17.227Z,77.78
2022-08-27T02:57:46.141Z,78.34
2022-08-27T03:00:17.219Z,77.92
2022-08-27T03:02:46.071Z,78.38
2022-08-27T03:05:16.133Z,79.17
2022-08-27T03:07:44.847Z,78.96
2022-08-27T03:10:16.638Z,79.17
2022-08-27T03:12:45.346Z,79.78
2022-08-27T03:15:16.678Z,78.67
2022-08-27T03:18:03.215Z,77.60
2022-08-27T03:20:32.055Z,77.91
2022-08-27T03:23:00.506Z,78.72
2022-08-27T03:25:30.589Z,79.13
2022-08-27T03:28:01.270Z,80.02
2022-08-27T03:30:29.425Z,80.56
2022-08-27T03:32:57.577Z,80.93
2022-08-27T03:35:25.861Z,82.11
2022-08-27T03:37:54.352Z,81.53
2022-08-27T03:40:22.582Z,81.87
2022-08-27T03:42:52.207Z,81.83
2022-08-27T03:45:20.389Z,81.71
2022-08-27T03:47:48.521Z,81.50
2022-08-27T03:50:16.632Z,80.39
2022-08-27T03:52:44.754Z,79.84
2022-08-27T03:55:12.870Z,79.43
2022-08-27T03:57:41.130Z,79.35
2022-08-27T04:00:13.227Z,79.06
2022-08-27T04:02:44.248Z,79.10
2022-08-27T04:05:14.923Z,79.21
2022-08-27T04:10:13.436Z,78.94
2022-08-27T04:12:41.824Z,78.01
2022-08-27T04:15:14.208Z,77.89
2022-08-27T04:17:42.645Z,77.60
2022-08-27T04:20:33.905Z,77.69
2022-08-27T04:23:00.374Z,77.34
2022-08-27T04:25:28.512Z,76.98
2022-08-27T04:27:56.681Z,76.09
2022-08-27T04:30:26.663Z,75.48
2022-08-27T04:32:54.829Z,74.98
2022-08-27T04:35:23.017Z,75.14
2022-08-27T04:37:51.293Z,74.92
2022-08-27T04:40:19.509Z,74.55
2022-08-27T04:42:47.740Z,73.81
2022-08-27T04:45:15.870Z,73.63
2022-08-27T04:47:45.597Z,72.26
2022-08-27T04:50:13.789Z,70.98
2022-08-27T04:52:43.137Z,69.98
2022-08-27T04:55:11.665Z,68.96
2022-08-27T04:57:39.930Z,69.47
2022-08-27T05:00:09.592Z,69.21
2022-08-27T05:02:37.855Z,68.79
2022-08-27T05:05:08.621Z,69.06
2022-08-27T05:07:38.175Z,69.79
2022-08-27T05:10:07.130Z,69.83
2022-08-27T05:12:35.611Z,70.46
2022-08-27T05:15:04.312Z,70.70
2022-08-27T05:17:35.066Z,70.92
2022-08-27T05:20:04.850Z,71.12
2022-08-27T05:22:35.207Z,71.66
2022-08-27T05:25:03.369Z,71.84
2022-08-27T05:27:31.455Z,72.23
2022-08-27T05:29:59.626Z,71.98
2022-08-27T05:32:27.780Z,72.49
2022-08-27T05:34:56.076Z,72.06
2022-08-27T05:37:24.147Z,72.28
2022-08-27T05:39:53.798Z,72.74
2022-08-27T05:42:22.159Z,72.72
2022-08-27T05:44:50.348Z,72.70
2022-08-27T05:47:18.443Z,72.43
2022-08-27T05:49:46.682Z,72.95
2022-08-27T05:52:14.788Z,72.69
2022-08-27T05:54:42.934Z,72.68
2022-08-27T05:57:13.012Z,72.23
2022-08-27T05:59:58.757Z,71.77
2022-08-27T06:02:27.053Z,71.87
2022-08-27T06:04:55.449Z,71.54
2022-08-27T06:07:23.594Z,72.21
2022-08-27T06:09:52.092Z,72.47
2022-08-27T06:12:26.949Z,70.87
2022-08-27T06:14:56.632Z,71.96
2022-08-27T06:17:24.700Z,70.63
2022-08-27T06:19:52.849Z,70.61
2022-08-27T06:22:21.025Z,70.57
2022-08-27T06:24:49.076Z,70.04
2022-08-27T06:27:20.001Z,70.24
2022-08-27T06:29:49.579Z,70.57
2022-08-27T06:32:17.775Z,70.45
2022-08-27T06:34:45.975Z,70.89
2022-08-27T06:37:14.292Z,70.75
2022-08-27T06:39:42.689Z,68.65
2022-08-27T06:42:13.306Z,68.40
2022-08-27T06:44:41.941Z,67.89
2022-08-27T06:47:12.090Z,65.52
2022-08-27T06:49:43.441Z,65.86
2022-08-27T06:52:15.055Z,63.48
2022-08-27T06:54:43.228Z,63.49
2022-08-27T06:57:11.375Z,63.08
2022-08-27T06:59:39.951Z,62.25
2022-08-27T07:02:08.666Z,60.67
2022-08-27T07:04:38.672Z,59.15
2022-08-27T07:07:08.222Z,58.96
2022-08-27T07:09:36.994Z,58.94
2022-08-27T07:12:06.290Z,58.99
2022-08-27T07:14:38.075Z,59.54
2022-08-27T07:17:09.144Z,58.67
2022-08-27T07:19:41.502Z,58.73
2022-08-27T07:22:10.528Z,57.97
2022-08-27T07:24:38.809Z,57.94
2022-08-27T07:27:07.897Z,57.67
2022-08-27T07:29:37.248Z,56.81
2022-08-27T07:32:06.758Z,56.79
2022-08-27T07:34:35.313Z,56.49
2022-08-27T07:37:05.214Z,55.07
2022-08-27T07:39:35.645Z,52.55
2022-08-27T07:42:21.316Z,53.18
2022-08-27T07:44:50.113Z,54.96
2022-08-27T07:47:18.584Z,54.31
2022-08-27T07:49:46.696Z,53.45
2022-08-27T07:52:18.251Z,53.18
2022-08-27T07:54:48.080Z,53.86
2022-08-27T07:57:16.283Z,52.43
2022-08-27T07:59:44.498Z,52.09
2022-08-27T08:02:13.667Z,52.01
2022-08-27T08:04:41.969Z,50.27
2022-08-27T08:07:10.348Z,51.42
2022-08-27T08:09:39.936Z,49.49
2022-08-27T08:12:08.404Z,49.53
2022-08-27T08:14:38.333Z,50.06
2022-08-27T08:17:10.380Z,46.28
2022-08-27T08:19:40.396Z,42.80
2022-08-27T08:22:08.799Z,41.56
2022-08-27T08:24:37.264Z,41.67
2022-08-27T08:27:08.030Z,40.20
2022-08-27T08:29:37.708Z,39.89
2022-08-27T08:32:07.455Z,39.36
2022-08-27T08:34:37.012Z,39.64
2022-08-27T08:37:05.626Z,39.65
2022-08-27T08:39:34.874Z,39.33
2022-08-27T08:42:06.154Z,39.30
2022-08-27T08:44:38.983Z,39.01
2022-08-27T08:47:12.672Z,39.38
2022-08-27T08:49:48.162Z,40.15
2022-08-27T08:52:31.581Z,38.28
2022-08-27T08:55:11.966Z,38.78
2022-08-27T08:57:45.592Z,36.39
2022-08-27T09:00:16.733Z,36.42
2022-08-27T09:02:53.741Z,36.26
2022-08-27T09:05:24.708Z,36.64
2022-08-27T09:08:30.846Z,37.46
2022-08-27T09:11:00.086Z,35.90
2022-08-27T09:13:33.796Z,35.26
2022-08-27T09:16:05.727Z,35.42
2022-08-27T09:18:37.754Z,35.05
2022-08-27T09:21:16.792Z,35.90
2022-08-27T09:23:54.831Z,35.84
2022-08-27T09:26:26.293Z,35.40
2022-08-27T09:29:20.357Z,35.68
2022-08-27T09:31:56.525Z,34.36
2022-08-27T09:34:25.815Z,34.83
2022-08-27T09:36:59.405Z,35.77
2022-08-27T09:39:34.070Z,33.97
2022-08-27T09:42:05.732Z,34.30
2022-08-27T09:44:34.298Z,32.41
2022-08-27T09:47:05.030Z,33.88
2022-08-27T09:49:34.733Z,32.48
2022-08-27T09:52:03.400Z,32.76
2022-08-27T09:54:42.117Z,32.86
2022-08-27T09:57:12.926Z,33.00
2022-08-27T09:59:44.844Z,31.69
2022-08-27T10:02:19.868Z,31.34
2022-08-27T10:04:51.921Z,31.69
2022-08-27T10:07:31.413Z,31.86
2022-08-27T10:10:05.630Z,30.31
2022-08-27T10:12:41.633Z,29.17
2022-08-27T10:15:14.320Z,29.06
2022-08-27T10:17:53.992Z,28.91
2022-08-27T10:20:30.858Z,29.12
2022-08-27T10:23:13.615Z,29.13
2022-08-27T10:25:50.114Z,29.71
2022-08-27T10:28:31.951Z,28.45
2022-08-27T10:31:14.792Z,29.40
2022-08-27T10:33:57.132Z,29.34
2022-08-27T10:36:37.736Z,29.30
2022-08-27T10:39:17.467Z,30.03
2022-08-27T10:41:53.205Z,29.71
2022-08-27T10:44:37.678Z,28.90
2022-08-27T10:47:17.040Z,29.58
2022-08-27T10:49:55.683Z,29.34
2022-08-27T10:52:30.791Z,28.54
2022-08-27T10:55:07.056Z,28.18
2022-08-27T10:58:00.275Z,28.87
2022-08-27T11:00:40.203Z,29.26
2022-08-27T11:03:13.764Z,28.02
2022-08-27T11:05:48.180Z,27.85
2022-08-27T11:08:23.562Z,27.58
2022-08-27T11:10:56.862Z,27.51
2022-08-27T11:13:34.262Z,27.57
2022-08-27T11:16:08.499Z,26.82
2022-08-27T11:18:42.470Z,27.35
2022-08-27T11:21:16.068Z,27.43
2022-08-27T11:23:47.709Z,27.51
2022-08-27T11:26:15.888Z,27.65
2022-08-27T11:28:48.220Z,27.32
2022-08-27T11:31:21.160Z,27.70
2022-08-27T11:33:59.771Z,27.65
2022-08-27T11:36:54.061Z,26.74
2022-08-27T11:39:41.033Z,26.65
2022-08-27T11:42:16.044Z,25.71
2022-08-27T11:44:46.723Z,26.90
2022-08-27T11:47:21.075Z,26.66
2022-08-27T11:49:52.176Z,26.25
2022-08-27T11:52:29.151Z,26.51
2022-08-27T11:55:11.099Z,26.49
2022-08-27T11:57:40.309Z,26.00
2022-08-27T12:00:20.205Z,26.51
2022-08-27T12:02:59.048Z,26.21
2022-08-27T12:05:36.745Z,26.88
2022-08-27T12:08:18.881Z,26.76
2022-08-27T12:11:06.293Z,26.65
2022-08-27T12:13:42.702Z,26.69
2022-08-27T12:16:26.676Z,26.10
2022-08-27T12:19:05.325Z,26.25
2022-08-27T12:21:45.276Z,26.37
2022-08-27T12:24:27.355Z,26.91
2022-08-27T12:26:57.798Z,26.48
2022-08-27T12:29:31.419Z,25.86
2022-08-27T12:32:11.252Z,26.16
2022-08-27T12:34:45.843Z,25.95
2022-08-27T12:37:14.634Z,25.60
2022-08-27T12:39:49.460Z,25.83
2022-08-27T12:42:22.940Z,26.13
2022-08-27T12:44:56.375Z,25.69
2022-08-27T12:47:25.472Z,26.42
2022-08-27T12:49:57.604Z,26.06
2022-08-27T12:52:43.989Z,26.61
2022-08-27T12:55:24.571Z,26.25
2022-08-27T12:57:59.892Z,26.24
2022-08-27T13:00:37.928Z,26.76
2022-08-27T13:03:26.247Z,26.32
2022-08-27T13:05:57.677Z,26.51
2022-08-27T13:08:31.189Z,25.93
2022-08-27T13:11:12.767Z,25.95
2022-08-27T13:13:43.105Z,25.93
2022-08-27T13:16:11.351Z,26.10
2022-08-27T13:18:39.735Z,26.32
2022-08-27T13:21:15.425Z,26.52
2022-08-27T13:23:47.225Z,26.79
2022-08-27T13:26:23.030Z,26.87
2022-08-27T13:28:52.648Z,24.89
2022-08-27T13:31:24.630Z,25.02
2022-08-27T13:33:58.684Z,25.18
2022-08-27T13:36:32.268Z,24.93
2022-08-27T13:39:02.265Z,24.64
2022-08-27T13:41:35.757Z,24.90
2022-08-27T13:44:11.985Z,25.53
2022-08-27T13:46:48.037Z,26.66
2022-08-27T13:49:23.495Z,26.63
2022-08-27T13:51:58.948Z,27.31
2022-08-27T13:54:27.049Z,27.11
2022-08-27T13:57:08.792Z,27.18
2022-08-27T13:59:42.899Z,27.23
2022-08-27T14:02:25.852Z,26.38
2022-08-27T14:05:09.904Z,27.19
2022-08-27T14:07:41.491Z,26.00
2022-08-27T14:10:27.131Z,26.21
2022-08-27T14:13:02.312Z,27.00
2022-08-27T14:15:35.183Z,26.47
2022-08-27T14:18:05.621Z,26.33
2022-08-27T14:20:34.976Z,26.17
2022-08-27T14:23:03.142Z,26.58
2022-08-27T14:25:31.886Z,26.26
2022-08-27T14:28:02.213Z,26.56
2022-08-27T14:30:32.786Z,27.21
2022-08-27T14:33:02.541Z,26.67
2022-08-27T14:35:32.430Z,27.39
2022-08-27T14:38:05.978Z,26.84
2022-08-27T14:40:34.227Z,27.18
2022-08-27T14:43:05.014Z,27.21
2022-08-27T14:45:34.887Z,27.40
2022-08-27T14:48:03.440Z,27.02
2022-08-27T14:50:32.769Z,27.25
2022-08-27T14:53:01.361Z,26.93
2022-08-27T14:55:30.881Z,26.72
2022-08-27T14:58:00.682Z,26.18
2022-08-27T15:00:30.978Z,26.11
2022-08-27T15:03:00.811Z,26.53
2022-08-27T15:05:29.059Z,27.14
2022-08-27T15:07:58.185Z,27.44
2022-08-27T15:10:26.939Z,27.12
2022-08-27T15:12:56.666Z,28.21
2022-08-27T15:15:25.352Z,28.21
2022-08-27T15:17:55.004Z,27.76
2022-08-27T15:20:23.411Z,27.84
2022-08-27T15:22:53.746Z,28.48
2022-08-27T15:25:23.908Z,28.43
2022-08-27T15:27:52.454Z,28.13
2022-08-27T15:30:27.649Z,28.00
2022-08-27T15:32:57.564Z,27.61
2022-08-27T15:35:28.069Z,27.94
2022-08-27T15:37:58.265Z,27.81
2022-08-27T15:40:28.752Z,28.00
2022-08-27T15:43:02.254Z,28.29
2022-08-27T15:45:31.606Z,28.46
2022-08-27T15:48:01.792Z,28.95
2022-08-27T15:50:31.683Z,28.36
2022-08-27T15:53:02.946Z,28.44
2022-08-27T15:55:35.292Z,29.21
2022-08-27T15:58:04.451Z,28.67
2022-08-27T16:00:34.599Z,29.14
2022-08-27T16:03:06.456Z,29.21
2022-08-27T16:05:37.359Z,28.33
2022-08-27T16:08:05.703Z,28.14
2022-08-27T16:10:34.630Z,28.48
2022-08-27T16:13:04.100Z,28.37
2022-08-27T16:15:34.021Z,28.06
2022-08-27T16:18:05.719Z,28.60
2022-08-27T16:20:34.925Z,29.08
2022-08-27T16:23:03.118Z,28.86
2022-08-27T16:25:31.294Z,28.90
2022-08-27T16:28:01.724Z,29.34
2022-08-27T16:30:30.170Z,29.36
2022-08-27T16:32:58.863Z,29.58
2022-08-27T16:35:28.479Z,29.89
2022-08-27T16:37:56.709Z,30.27
2022-08-27T16:40:25.789Z,31.00
2022-08-27T16:42:54.621Z,30.51
2022-08-27T16:45:24.654Z,30.64
2022-08-27T16:48:11.011Z,30.84
2022-08-27T16:50:42.718Z,31.24
2022-08-27T16:53:14.444Z,31.75
2022-08-27T16:55:44.040Z,31.86
2022-08-27T16:58:19.294Z,32.37
2022-08-27T17:00:50.624Z,33.11
2022-08-27T17:03:20.134Z,33.39
2022-08-27T17:05:50.533Z,33.88
2022-08-27T17:08:19.956Z,34.86
2022-08-27T17:10:51.776Z,34.95
2022-08-27T17:13:23.053Z,36.07
2022-08-27T17:15:57.331Z,36.38
2022-08-27T17:18:28.610Z,36.65
2022-08-27T17:21:00.230Z,37.00
2022-08-27T17:23:34.942Z,37.81
2022-08-27T17:26:05.173Z,38.93
2022-08-27T17:28:33.690Z,39.96
2022-08-27T17:31:03.275Z,40.07
2022-08-27T17:33:35.709Z,41.08
2022-08-27T17:36:06.511Z,42.11
2022-08-27T17:38:37.585Z,43.33
2022-08-27T17:41:12.688Z,44.06
2022-08-27T17:43:41.727Z,44.23
2022-08-27T17:46:11.679Z,44.60
2022-08-27T17:48:39.909Z,45.32
2022-08-27T17:51:11.233Z,45.15
2022-08-27T17:53:43.301Z,45.90
2022-08-27T17:56:11.350Z,46.28
2022-08-27T17:58:39.504Z,46.39
2022-08-27T18:01:11.347Z,46.48
2022-08-27T18:03:47.564Z,46.32
2022-08-27T18:06:18.013Z,46.44
2022-08-27T18:08:46.238Z,46.29
2022-08-27T18:11:16.289Z,46.43
2022-08-27T18:13:45.323Z,46.69
2022-08-27T18:16:13.431Z,46.94
2022-08-27T18:18:42.662Z,47.17
2022-08-27T18:21:10.943Z,47.00
2022-08-27T18:23:40.611Z,46.62
2022-08-27T18:26:14.745Z,46.82
2022-08-27T18:28:43.886Z,47.23
2022-08-27T18:31:12.765Z,47.04
2022-08-27T18:33:41.041Z,46.41
2022-08-27T18:36:09.376Z,46.70
2022-08-27T18:38:37.591Z,46.50
2022-08-27T18:41:08.788Z,47.39
2022-08-27T18:43:37.813Z,47.04
2022-08-27T18:46:07.200Z,46.66
2022-08-27T18:48:36.023Z,46.89
2022-08-27T18:51:07.726Z,47.04
2022-08-27T18:53:40.535Z,47.03
2022-08-27T18:56:11.948Z,47.53
2022-08-27T18:58:45.126Z,46.38
2022-08-27T19:01:16.647Z,46.19
2022-08-27T19:03:47.645Z,46.39
2022-08-27T19:06:17.964Z,46.01
2022-08-27T19:08:48.536Z,46.26
2022-08-27T19:11:18.083Z,45.68
2022-08-27T19:13:50.765Z,46.16
2022-08-27T19:16:24.223Z,44.79
2022-08-27T19:18:53.159Z,45.54
2022-08-27T19:21:21.404Z,47.57
2022-08-27T19:23:51.449Z,48.15
2022-08-27T19:26:24.570Z,46.97
2022-08-27T19:28:53.538Z,46.13
2022-08-27T19:31:21.826Z,45.61
2022-08-27T19:33:52.671Z,45.22
2022-08-27T19:36:25.955Z,45.43
2022-08-27T19:38:56.644Z,45.60
2022-08-27T19:41:28.160Z,46.25
2022-08-27T19:43:59.169Z,46.67
2022-08-27T19:46:32.872Z,46.75
2022-08-27T19:49:01.647Z,47.03
2022-08-27T19:51:30.809Z,46.39
2022-08-27T19:53:59.132Z,46.70
2022-08-27T19:56:33.475Z,46.22
2022-08-27T19:59:16.194Z,46.59
2022-08-27T20:01:48.668Z,47.06
2022-08-27T20:04:17.273Z,48.20
2022-08-27T20:06:45.479Z,48.54
2022-08-27T20:09:16.256Z,49.34
2022-08-27T20:11:47.713Z,49.69
2022-08-27T20:14:15.967Z,50.43
2022-08-27T20:16:45.833Z,50.83
2022-08-27T20:19:14.372Z,51.25
2022-08-27T20:21:42.553Z,51.48
2022-08-27T20:24:10.785Z,51.89
2022-08-27T20:26:40.364Z,52.03
2022-08-27T20:29:11.659Z,52.27
2022-08-27T20:31:43.423Z,52.79
2022-08-27T20:34:12.159Z,53.71
2022-08-27T20:36:41.020Z,53.89
2022-08-27T20:39:09.300Z,52.05
2022-08-27T20:41:38.191Z,50.69
2022-08-27T20:44:09.518Z,50.68
2022-08-27T20:46:37.987Z,52.08
2022-08-27T20:49:07.991Z,52.57
2022-08-27T20:52:02.319Z,52.24
2022-08-27T20:54:27.985Z,52.38
2022-08-27T20:56:56.943Z,52.76
2022-08-27T20:59:44.529Z,53.12
2022-08-27T21:02:15.232Z,52.53
2022-08-27T21:04:47.138Z,52.47
2022-08-27T21:07:16.502Z,55.24
2022-08-27T21:09:56.204Z,55.57
2022-08-27T21:12:26.424Z,56.78
2022-08-27T21:14:58.989Z,56.92
2022-08-27T21:17:30.465Z,57.19
2022-08-27T21:19:59.435Z,57.62
2022-08-27T21:22:28.596Z,56.75
2022-08-27T21:24:57.783Z,57.61
2022-08-27T21:27:27.306Z,58.70
2022-08-27T21:29:57.053Z,59.05
2022-08-27T21:32:25.225Z,60.09
2022-08-27T21:34:53.711Z,60.19
2022-08-27T21:37:22.072Z,60.41
2022-08-27T21:39:50.241Z,60.70
2022-08-27T21:42:18.506Z,61.09
2022-08-27T21:44:46.835Z,61.22
2022-08-27T21:47:16.682Z,61.44
2022-08-27T21:49:45.922Z,62.21
2022-08-27T21:52:14.680Z,62.34
2022-08-27T21:54:43.953Z,62.77
2022-08-27T21:57:15.616Z,63.14
2022-08-27T21:59:47.408Z,63.52
2022-08-27T22:05:08.860Z,64.34
2022-08-27T22:07:37.058Z,64.46
2022-08-27T22:10:07.202Z,65.03
2022-08-27T22:12:35.787Z,65.49
2022-08-27T22:15:06.761Z,65.27
2022-08-27T22:17:37.203Z,65.54
2022-08-27T22:20:08.432Z,66.13
2022-08-27T22:22:37.031Z,66.93
2022-08-27T22:25:06.932Z,67.44
2022-08-27T22:27:35.443Z,67.62
2022-08-27T22:30:03.688Z,67.87
2022-08-27T22:32:32.794Z,68.30
2022-08-27T22:35:02.425Z,68.27
2022-08-27T22:37:31.081Z,68.54
2022-08-27T22:39:59.287Z,69.16
2022-08-27T22:42:27.633Z,69.01
2022-08-27T22:44:55.861Z,69.24
2022-08-27T22:47:24.036Z,69.29
2022-08-27T22:49:52.757Z,69.33
2022-08-27T22:52:23.202Z,69.77
2022-08-27T22:54:56.518Z,70.09
2022-08-27T22:57:24.803Z,70.59
2022-08-27T22:59:52.977Z,70.75
2022-08-27T23:02:21.260Z,70.83
2022-08-27T23:04:56.665Z,70.14
2022-08-27T23:07:26.406Z,69.81
2022-08-27T23:09:54.677Z,69.93
2022-08-27T23:12:23.753Z,69.63
2022-08-27T23:14:51.881Z,69.98
2022-08-27T23:17:20.575Z,70.12
2022-08-27T23:19:49.328Z,69.78
2022-08-27T23:22:17.657Z,69.77
2022-08-27T23:25:05.336Z,69.31
2022-08-27T23:27:33.617Z,69.51
2022-08-27T23:30:03.915Z,69.86
2022-08-27T23:32:32.411Z,70.17
2022-08-27T23:35:00.885Z,70.21
2022-08-27T23:37:29.042Z,70.48
2022-08-27T23:39:59.315Z,70.70
2022-08-27T23:42:28.014Z,70.76
2022-08-27T23:44:56.493Z,71.23
2022-08-27T23:47:24.704Z,71.35
2022-08-27T23:49:52.907Z,71.95
2022-08-27T23:52:21.051Z,71.84
2022-08-27T23:54:49.211Z,72.04
2022-08-27T23:57:18.744Z,71.92
2022-08-27T23:59:46.936Z,72.36
